CW7977 Corfu GR current weather conditions

sailwx.info

Wind from 270

Air temperature 22.2° C
Dewpoint 18.2° C

Last reported at 2014-Aug-01 00:47 UTC.
Time now 2014-Aug-01 01:47 UTC

Location: N 39°37' E 019°54'.
View on Google Maps.

See reports from other nearby stations

  
Tides and Currents Weather Stations Pressure Air Temp Water Temp Dewpoint Dewpoint Depression Visibility Wind Speed Wind Dir Waves Ship Positions
date/time (UTC)wind fromknots sea level pressurealtimeterstation pressurevisibilityair tempwater tempwave heightnotes
2014-Aug-01 00:47 270 22.2
2014-Aug-01 00:37 308 1 gusting 6 22.2
2014-Aug-01 00:27 322 0 gusting 4 22.2
2014-Aug-01 00:17 311 1 gusting 5 22.2
2014-Aug-01 00:07 270 22.2
2014-Jul-31 23:57 292 2 gusting 6 22.2
2014-Jul-31 23:47 292 0 gusting 2 22.2
2014-Jul-31 23:37 239 0 gusting 1 22.2
2014-Jul-31 23:27 212 0 gusting 1 22.2
2014-Jul-31 23:17 158 22.2
2014-Jul-31 23:07 225 0 gusting 1 22.2
2014-Jul-31 22:57 220 22.2
2014-Jul-31 22:47 161 0 gusting 4 22.2
2014-Jul-31 22:37 202 22.8
2014-Jul-31 22:27 255 0 gusting 4 22.8
2014-Jul-31 22:17 270 0 gusting 2 22.8
2014-Jul-31 22:07 263 22.8
2014-Jul-31 21:57 292 22.8
2014-Jul-31 21:47 315 22.8
2014-Jul-31 21:27 273 0 gusting 1 22.8
2014-Jul-31 21:17 235 22.8
2014-Jul-31 21:07 282 1 gusting 6 22.8
2014-Jul-31 20:57 306 1 gusting 6 22.8
2014-Jul-31 20:47 300 1 gusting 6 22.8
2014-Jul-31 20:37 294 4 gusting 6 22.8
2014-Jul-31 20:27 301 1 gusting 5 22.8
2014-Jul-31 20:17 300 0 gusting 4 22.8
2014-Jul-31 20:07 295 2 gusting 4 22.8
2014-Jul-31 19:57 263 0 gusting 4 22.8
2014-Jul-31 19:47 292 0 gusting 2 23.3
2014-Jul-31 19:37 292 23.3
2014-Jul-31 19:27 282 0 gusting 2 23.3
2014-Jul-31 19:17 255 23.3
2014-Jul-31 19:07 251 0 gusting 2 23.3
2014-Jul-31 18:57 292 0 gusting 2 23.3
2014-Jul-31 18:47 272 23.9
2014-Jul-31 18:37 230 0 gusting 2 23.9
2014-Jul-31 18:27 320 1 gusting 6 23.9
2014-Jul-31 18:17 310 0 gusting 6 23.9
2014-Jul-31 18:07 284 2 gusting 6 23.9
2014-Jul-31 17:57 276 2 gusting 7 24.4
2014-Jul-31 17:47 279 2 gusting 7 24.4
2014-Jul-31 17:37 291 4 gusting 11 25.0
2014-Jul-31 17:27 296 4 gusting 10 25.6
2014-Jul-31 17:17 304 4 gusting 8 26.1
2014-Jul-31 17:07 309 4 gusting 8 26.7
2014-Jul-31 16:57 296 2 gusting 10 27.2
2014-Jul-31 16:47 289 5 gusting 10 27.2
2014-Jul-31 16:37 326 6 gusting 11 27.2
2014-Jul-31 16:27 339 5 gusting 13 27.2
2014-Jul-31 16:17 323 6 gusting 12 27.8
2014-Jul-31 16:07 302 5 gusting 13 27.8
2014-Jul-31 15:57 299 4 gusting 11 27.8
2014-Jul-31 15:47 291 5 gusting 11 27.8
2014-Jul-31 15:37 305 4 gusting 10 27.8
2014-Jul-31 15:27 330 5 gusting 13 27.8
2014-Jul-31 15:17 299 5 gusting 10 27.8
2014-Jul-31 15:07 319 8 gusting 13 28.3
2014-Jul-31 14:57 320 3 gusting 8 28.3
2014-Jul-31 14:47 331 5 gusting 11 27.8
2014-Jul-31 14:36 317 5 gusting 8 27.8
2014-Jul-31 03:47 139 0 gusting 7 20.6
2014-Jul-31 03:37 144 5 gusting 7 20.6
2014-Jul-31 03:27 127 1 gusting 6 20.6
2014-Jul-31 03:17 053 2 gusting 8 20.0
2014-Jul-31 03:07 085 5 gusting 15 20.0
2014-Jul-31 02:57 090 11 gusting 19 20.0
2014-Jul-31 02:47 083 12 gusting 22 20.6
2014-Jul-31 02:37 065 6 gusting 19 20.6
2014-Jul-31 02:27 050 12 gusting 28 21.1
2014-Jul-31 02:17 006 6 gusting 11 21.7
2014-Jul-31 02:07 154 1 gusting 4 22.2
2014-Jul-31 01:57 336 3 gusting 13 22.8
2014-Jul-31 01:47 286 5 gusting 19 23.9
2014-Jul-31 01:37 338 6 gusting 21 24.4
2014-Jul-31 01:27 159 10 gusting 17 24.4
2014-Jul-31 01:17 135 9 gusting 14 24.4
2014-Jul-31 01:07 127 8 gusting 13 25.0
2014-Jul-31 00:57 152 7 gusting 12 25.0
2014-Jul-31 00:47 145 8 gusting 12 25.0
2014-Jul-31 00:37 136 5 gusting 11 25.0
2014-Jul-31 00:27 149 5 gusting 11 25.0
2014-Jul-31 00:17 139 7 gusting 13 25.0
2014-Jul-31 00:07 153 4 gusting 10 24.4
2014-Jul-30 23:57 145 4 gusting 11 24.4
2014-Jul-30 23:47 147 2 gusting 7 24.4
2014-Jul-30 23:37 152 4 gusting 8 24.4
2014-Jul-30 23:27 141 4 gusting 7 24.4
2014-Jul-30 23:17 149 4 gusting 8 24.4
2014-Jul-30 23:07 179 4 gusting 6 24.4
2014-Jul-30 22:57 161 4 gusting 7 25.0
2014-Jul-30 22:47 144 2 gusting 7 25.0
2014-Jul-30 22:37 165 4 gusting 6 25.0
2014-Jul-30 22:27 160 5 gusting 7 25.0
2014-Jul-30 22:17 148 5 gusting 6 25.0
2014-Jul-30 22:07 148 4 gusting 6 25.0
2014-Jul-30 21:57 174 1 gusting 6 25.0
2014-Jul-30 21:47 162 4 gusting 6 25.0
2014-Jul-30 21:37 154 1 gusting 4 25.0
2014-Jul-30 21:27 127 1 gusting 5 25.0
2014-Jul-30 21:17 158 0 gusting 2 25.0
2014-Jul-30 21:07 180 0 gusting 2 25.0
2014-Jul-30 20:57 141 0 gusting 2 25.0
2014-Jul-30 20:47 185 0 gusting 1 24.4
2014-Jul-30 20:37 112 0 gusting 2 24.4
2014-Jul-30 20:27 180 24.4
2014-Jul-30 20:17 158 24.4
2014-Jul-30 20:07 154 0 gusting 6 24.4
2014-Jul-30 19:57 186 0 gusting 2 25.0
2014-Jul-30 19:47 221 0 gusting 2 25.0
2014-Jul-30 19:37 196 0 gusting 4 25.0
2014-Jul-30 19:27 183 0 gusting 6 25.0
2014-Jul-30 19:17 166 1 gusting 6 25.0
2014-Jul-30 19:07 198 2 gusting 6 25.0
2014-Jul-30 18:57 193 1 gusting 6 25.6
2014-Jul-30 18:47 185 1 gusting 5 25.6
2014-Jul-30 18:37 187 1 gusting 6 25.6
2014-Jul-30 18:27 183 1 gusting 5 25.6
2014-Jul-30 18:17 168 0 gusting 5 25.6
2014-Jul-30 18:07 173 2 gusting 5 26.1
2014-Jul-30 17:57 163 3 gusting 6 26.1
2014-Jul-30 17:47 153 3 gusting 6 26.1
2014-Jul-30 17:37 153 3 gusting 6 26.1
2014-Jul-30 17:27 162 1 gusting 6 26.7
2014-Jul-30 17:17 152 2 gusting 7 26.7
2014-Jul-30 17:07 156 4 gusting 6 27.2
2014-Jul-30 16:57 136 1 gusting 7 27.8
2014-Jul-30 16:47 159 5 gusting 8 27.8
2014-Jul-30 16:37 132 6 gusting 8 27.8
2014-Jul-30 16:27 134 5 gusting 7 28.3
2014-Jul-30 16:17 122 2 gusting 7 28.3
2014-Jul-30 16:07 130 4 gusting 7 29.4
2014-Jul-30 15:57 126 2 gusting 6 29.4
2014-Jul-30 15:47 163 0 gusting 4 28.9
2014-Jul-30 15:37 014 1 gusting 4 28.9
2014-Jul-30 15:27 145 1 gusting 6 28.9
2014-Jul-30 15:17 131 5 gusting 6 28.9
2014-Jul-30 15:07 086 2 gusting 8 28.9
2014-Jul-30 14:57 041 2 gusting 6 28.9
2014-Jul-30 14:47 270 29.4
2014-Jul-30 14:37 318 0 gusting 5 29.4
2014-Jul-30 14:27 029 0 gusting 6 30.0
2014-Jul-30 14:17 069 30.0
2014-Jul-30 14:07 238 0 gusting 6 30.0
2014-Jul-30 13:57 133 4 gusting 6 30.0
2014-Jul-30 13:47 160 3 gusting 7 30.0
2014-Jul-30 13:37 154 2 gusting 6 30.6
2014-Jul-30 13:27 167 4 gusting 10 30.6
2014-Jul-30 13:17 150 6 gusting 11 31.1
2014-Jul-30 13:07 167 5 gusting 10 31.1
2014-Jul-30 12:57 148 4 gusting 7 31.1
2014-Jul-30 12:47 131 4 gusting 6 31.1
2014-Jul-30 12:37 111 1 gusting 6 30.6
2014-Jul-30 12:27 144 4 gusting 6 30.0
2014-Jul-30 12:17 206 2 gusting 6 29.4
2014-Jul-30 12:07 183 6 gusting 11 28.9
2014-Jul-30 11:57 189 3 gusting 10 27.8
2014-Jul-30 11:47 141 6 gusting 10 27.8
2014-Jul-30 11:37 146 1 gusting 12 27.8
2014-Jul-30 11:27 129 9 gusting 13 28.3
2014-Jul-30 11:17 143 4 gusting 6 28.3
2014-Jul-30 11:07 140 5 gusting 6 27.8
2014-Jul-30 10:57 151 4 gusting 8 28.3
2014-Jul-30 10:47 120 5 gusting 8 28.3
2014-Jul-30 10:37 128 5 gusting 7 28.3
2014-Jul-30 10:27 116 4 gusting 7 27.8
2014-Jul-30 10:17 139 6 gusting 11 27.8
2014-Jul-30 10:07 140 6 gusting 10 27.8
2014-Jul-30 09:57 144 6 gusting 12 27.8
2014-Jul-30 09:47 134 4 gusting 11 28.3
2014-Jul-30 09:37 131 4 gusting 10 28.3
2014-Jul-30 09:27 147 5 gusting 10 27.8
2014-Jul-30 09:17 132 3 gusting 7 27.8
2014-Jul-30 09:07 156 5 gusting 10 27.8
2014-Jul-30 08:57 141 6 gusting 10 27.2
2014-Jul-30 08:47 147 6 gusting 10 27.2
2014-Jul-30 08:37 129 5 gusting 10 27.2
2014-Jul-30 08:27 138 5 gusting 12 27.2
2014-Jul-30 08:17 134 6 gusting 10 27.2
2014-Jul-30 08:07 144 5 gusting 11 27.2
2014-Jul-30 07:57 141 6 gusting 7 26.7
2014-Jul-30 07:47 130 5 gusting 7 26.7
2014-Jul-30 07:37 139 4 gusting 6 26.7
2014-Jul-30 07:27 147 1 gusting 5 26.7
2014-Jul-30 07:17 029 1 gusting 5 26.1
2014-Jul-30 07:07 270 1 gusting 4 25.6
2014-Jul-30 06:57 198 0 gusting 4 25.6
2014-Jul-30 06:47 156 2 gusting 6 25.6
2014-Jul-30 06:37 163 4 gusting 6 25.0
2014-Jul-30 06:27 219 2 gusting 6 25.0
2014-Jul-30 06:17 227 2 gusting 6 25.0
2014-Jul-30 06:07 137 4 gusting 6 25.0
2014-Jul-30 05:57 141 6 gusting 8 25.0
2014-Jul-30 05:47 137 6 gusting 8 25.0
2014-Jul-30 05:37 148 5 gusting 10 25.0
2014-Jul-30 05:27 131 2 gusting 6 25.0
2014-Jul-30 05:17 142 1 gusting 5 25.0
2014-Jul-30 05:07 167 0 gusting 2 25.0
2014-Jul-30 04:57 219 0 gusting 2 24.4
2014-Jul-30 04:47 217 0 gusting 4 23.9
2014-Jul-30 04:37 130 2 gusting 5 23.9
2014-Jul-30 04:27 158 4 gusting 6 23.3
2014-Jul-30 04:17 126 1 gusting 5 23.3
2014-Jul-30 04:07 194 2 gusting 6 23.3
2014-Jul-30 03:57 128 2 gusting 6 23.3
2014-Jul-30 03:47 122 22.8
2014-Jul-30 03:37 100 1 gusting 4 22.8
2014-Jul-30 03:27 180 22.2
2014-Jul-30 03:17 202 22.2
2014-Jul-30 03:07 202 22.2
2014-Jul-30 02:57 202 22.2
2014-Jul-30 02:47 202 22.8
2014-Jul-30 02:37 202 22.8
2014-Jul-30 02:27 238 22.8
2014-Jul-30 02:17 225 22.8
2014-Jul-30 02:07 248 22.8
2014-Jul-30 01:57 234 0 gusting 1 22.8
2014-Jul-30 01:47 202 0 gusting 1 22.8
2014-Jul-30 01:37 233 1 gusting 2 22.8
2014-Jul-30 01:27 248 1 gusting 2 23.3
2014-Jul-30 01:17 202 23.3
2014-Jul-30 01:07 292 23.3